WetterOnline ( https://www.wetteronline.de )

Wetter aktuell Pittenhart

Aktuelles Wetter: Chieming (553m)

6-stündlich | Neueste Meldungen
Ortszeit Temperatur Wetter
Mo, 20.09. 8:00 10.8° C bedeckt
Mo, 20.09. 2:00 11.4° C bedeckt
So, 19.09. 20:00 14.6° C bewölkt
So, 19.09. 14:00 16.8° C fast wolkenlos
So, 19.09. 8:00 8.0° C wolkenlos
So, 19.09. 2:00 7.9° C wolkenlos
Sa, 18.09. 20:00 13.2° C wolkenlos
Sa, 18.09. 14:00 18.1° C wolkenlos
Ortszeit Temperatur Wetter
Mo, 20.09. 11:00 11.8° C bedeckt
Mo, 20.09. 10:50 11.8° C bedeckt
Mo, 20.09. 10:40 11.8° C bedeckt
Mo, 20.09. 10:30 11.6° C bedeckt
Mo, 20.09. 10:20 11.6° C bedeckt
Mo, 20.09. 10:10 11.6° C bedeckt
Mo, 20.09. 10:00 11.3° C bedeckt
Mo, 20.09. 9:30 11.2° C bedeckt
Mo, 20.09. 9:00 11.1° C bedeckt
Mo, 20.09. 8:30 10.9° C bedeckt
Mo, 20.09. 8:00 10.8° C bedeckt
Ortszeit Relative Feuchte Sichtweite
Mo, 20.09. 8:00 92% 25 km
Mo, 20.09. 2:00 98% 30 km
So, 19.09. 20:00 84% 55 km
So, 19.09. 14:00 69% 55 km
So, 19.09. 8:00 94% 35 km
So, 19.09. 2:00 97% 30 km
Sa, 18.09. 20:00 81% >70 km
Sa, 18.09. 14:00 58% <100 m
Ortszeit Relative Feuchte Sichtweite
Mo, 20.09. 11:00 79% 40 km
Mo, 20.09. 10:50 79% -
Mo, 20.09. 10:40 81% -
Mo, 20.09. 10:30 85% 30 km
Mo, 20.09. 10:20 85% -
Mo, 20.09. 10:10 85% -
Mo, 20.09. 10:00 83% 30 km
Mo, 20.09. 9:30 89% 30 km
Mo, 20.09. 9:00 92% 23 km
Mo, 20.09. 8:30 92% 25 km
Mo, 20.09. 8:00 92% 25 km
Ortszeit Niederschlagsmenge Niederschlagsart
Mo, 20.09. 8:00 1 l/m2 in 12 Std. Regen
Mo, 20.09. 2:00 1 l/m2 in 6 Std. Regen
So, 19.09. 20:00 0.1 l/m2 in 12 Std. Regen
So, 19.09. 14:00 0.0 l/m2 in 6 Std. -
So, 19.09. 8:00 0.0 l/m2 in 12 Std. -
So, 19.09. 2:00 0.0 l/m2 in 6 Std. -
Sa, 18.09. 20:00 0.0 l/m2 in 12 Std. -
Sa, 18.09. 14:00 0.0 l/m2 in 6 Std. -
Ortszeit Niederschlagsmenge Niederschlagsart
Mo, 20.09. 11:00 0.0 l/m2 in 1 Std. -
Mo, 20.09. 10:50 keine Meldung -
Mo, 20.09. 10:40 keine Meldung -
Mo, 20.09. 10:30 0.0 l/m2 in 1 Std. -
Mo, 20.09. 10:20 keine Meldung -
Mo, 20.09. 10:10 keine Meldung -
Mo, 20.09. 10:00 0.0 l/m2 in 1 Std. -
Mo, 20.09. 9:30 0.0 l/m2 in 1 Std. -
Mo, 20.09. 9:00 0.0 l/m2 in 1 Std. -
Mo, 20.09. 8:30 0.0 l/m2 in 1 Std. -
Mo, 20.09. 8:00 0.0 l/m2 in 1 Std. Regen
Ortszeit Stärke Spitze Richtung
km/h Bft. km/h Grad Sektor
Mo, 20.09. 8:00 6 1 20 360° N
Mo, 20.09. 2:00 4 1 25 160° S
So, 19.09. 20:00 0 0 25 - -
So, 19.09. 14:00 20 4 31 70° O
So, 19.09. 8:00 9 2 11 80° O
So, 19.09. 2:00 7 2 18 80° O
Sa, 18.09. 20:00 4 1 14 90° O
Sa, 18.09. 14:00 7 2 14 260° W
Ortszeit Stärke Spitze Richtung
km/h Bft. km/h Grad Sektor
Mo, 20.09. 11:00 7 2 11 40° NO
Mo, 20.09. 10:50 7 2 - 40° NO
Mo, 20.09. 10:40 7 2 - 40° NO
Mo, 20.09. 10:30 7 2 11 40° NO
Mo, 20.09. 10:20 7 2 - 40° NO
Mo, 20.09. 10:10 7 2 - 30° NO
Mo, 20.09. 10:00 7 2 11 30° NO
Mo, 20.09. 9:30 7 2 11 20° N
Mo, 20.09. 9:00 7 2 11 20° N
Mo, 20.09. 8:30 7 2 9 10° N
Mo, 20.09. 8:00 6 1 11 360° N
Ortszeit Untergrenze Bedeckung Gattung
total tief tief mittel hoch
Mo, 20.09. 8:00 450 m 8/8 8/8 - - -
Mo, 20.09. 2:00 450 m 8/8 8/8 - - -
So, 19.09. 20:00 1350 m 7/8 8/8 - - -
So, 19.09. 14:00 720 m 1/8 1/8 - - -
So, 19.09. 8:00 - 0/8 0/8 - - -
So, 19.09. 2:00 - 0/8 0/8 - - -
Sa, 18.09. 20:00 - 0/8 0/8 - - -
Sa, 18.09. 14:00 - 0/8 0/8 - - -
Ortszeit Bedeckungsgrad in Achtel und Wolkenuntergrenze
Mo, 20.09. 11:00 1(360m) 8(1110m) 8(1500m)
Mo, 20.09. 10:50 1(360m) 8(1110m) 8(1500m)
Mo, 20.09. 10:40 1(330m) 8(1050m) 8(1350m)
Mo, 20.09. 10:30 8(660m) 8(990m) 8(1380m)
Mo, 20.09. 10:20 8(660m) 8(990m)
Mo, 20.09. 10:10 8(630m) 8(990m)
Mo, 20.09. 10:00 8(570m) 8(1050m)
Mo, 20.09. 9:30 7(510m) 8(990m)
Mo, 20.09. 9:00 7(450m) 8(900m) 8(1200m)
Mo, 20.09. 8:30 8(420m)
Mo, 20.09. 8:00 8(450m)
Ortszeit Luftdruck NN (hPa) Tendenz (hPa in 3 Std.)
Mo, 20.09. 8:00 1018 + 1,5
Mo, 20.09. 2:00 1016 + 1,1
So, 19.09. 20:00 1013 + 0,8
So, 19.09. 14:00 1011 - 0,7
So, 19.09. 8:00 1015 - 0,4
So, 19.09. 2:00 1016 - 1,0
Sa, 18.09. 20:00 1015 - 0,1
Sa, 18.09. 14:00 1015 - 0,6
Ortszeit Luftdruck NN (hPa) Tendenz (hPa in 3 Std.)
Mo, 20.09. 11:00 1019 + 1,0
Mo, 20.09. 10:50 1019 keine Meldung
Mo, 20.09. 10:40 1019 keine Meldung
Mo, 20.09. 10:30 1019 + 1,0
Mo, 20.09. 10:20 1019 keine Meldung
Mo, 20.09. 10:10 1019 keine Meldung
Mo, 20.09. 10:00 1019 + 1,2
Mo, 20.09. 9:30 1019 + 1,2
Mo, 20.09. 9:00 1019 + 1,3
Mo, 20.09. 8:30 1018 + 1,3
Mo, 20.09. 8:00 1018 + 1,5
Ortszeit Schneehöhe (cm)
Mo, 20.09. 8:00 -
Mo, 20.09. 2:00 -
So, 19.09. 20:00 -
So, 19.09. 14:00 -
So, 19.09. 8:00 -
So, 19.09. 2:00 -
Sa, 18.09. 20:00 -
Sa, 18.09. 14:00 -
Ortszeit Schneehöhe (cm)
Mo, 20.09. 11:00 -
Mo, 20.09. 10:50 -
Mo, 20.09. 10:40 -
Mo, 20.09. 10:30 -
Mo, 20.09. 10:20 -
Mo, 20.09. 10:10 -
Mo, 20.09. 10:00 -
Mo, 20.09. 9:30 -
Mo, 20.09. 9:00 -
Mo, 20.09. 8:30 -
Mo, 20.09. 8:00 -
Link zu dieser Seite / Seite empfehlen

Das Wetter in ...